Time;durP1;ratioP1;P1;durP2;ratioP2;P2;SDS_P1;SDS_P2;PMS_P1;PMS_P2;Temp;Humidity;BMP_temperature;BMP_pressure;BME280_temperature;BME280_humidity;BME280_pressure;Samples;Min_cycle;Max_cycle;Signal;HPM_P1;HPM_P2
2022/04/06 00:01:13;;;;;;;29.08;6.20;;;;;;;18.13;70.45;100684.63;2073105;28;20230;-73
2022/04/06 00:02:37;;;;;;;34.63;6.18;;;;;;;18.11;70.50;100684.69;2079415;28;20045;-74
2022/04/06 00:03:59;;;;;;;34.33;6.82;;;;;;;18.13;70.50;100687.31;2084403;28;20511;-74
2022/04/06 00:05:21;;;;;;;32.35;7.20;;;;;;;18.13;70.52;100682.84;2079073;28;20041;-74
2022/04/06 00:06:45;;;;;;;34.03;7.43;;;;;;;18.15;70.54;100680.16;2076463;28;20098;-74
2022/04/06 00:08:09;;;;;;;30.15;6.90;;;;;;;18.15;70.45;100678.38;2077484;28;20079;-74
2022/04/06 00:09:30;;;;;;;51.20;7.45;;;;;;;18.12;70.51;100681.06;2077290;28;20053;-74
2022/04/06 00:10:53;;;;;;;25.13;6.38;;;;;;;18.13;70.52;100679.28;2060459;28;20061;-74
2022/04/06 00:12:16;;;;;;;29.50;6.35;;;;;;;18.13;70.66;100680.19;2072969;28;20445;-74
2022/04/06 00:13:39;;;;;;;40.50;10.00;;;;;;;18.15;70.61;100678.38;2076222;28;20058;-74
2022/04/06 00:15:01;;;;;;;32.95;6.35;;;;;;;18.15;70.55;100681.03;2076817;28;20102;-74
2022/04/06 00:16:23;;;;;;;34.00;6.03;;;;;;;18.16;70.57;100677.47;2068435;28;20046;-74
2022/04/06 00:17:46;;;;;;;27.75;5.85;;;;;;;18.17;70.54;100675.69;2082912;28;20135;-74
2022/04/06 00:19:07;;;;;;;31.45;7.13;;;;;;;18.14;70.48;100676.59;2079884;28;20049;-73
2022/04/06 00:20:30;;;;;;;26.55;5.40;;;;;;;18.11;70.50;100676.66;2075397;28;20053;-74
2022/04/06 00:21:53;;;;;;;25.67;5.72;;;;;;;18.09;70.59;100665.13;2077516;28;20482;-73
2022/04/06 00:23:16;;;;;;;29.90;5.72;;;;;;;18.07;70.48;100672.25;2079834;28;20484;-74
2022/04/06 00:24:38;;;;;;;36.15;7.40;;;;;;;18.07;70.56;100674.94;2062904;28;20054;-74
2022/04/06 00:26:00;;;;;;;38.13;7.03;;;;;;;18.07;70.50;100672.25;2066896;28;20049;-74
2022/04/06 00:27:22;;;;;;;30.75;6.95;;;;;;;18.09;70.53;100673.13;2083232;28;20048;-73
2022/04/06 00:28:44;;;;;;;43.03;10.38;;;;;;;18.08;70.56;100678.50;2071157;28;20045;-73
2022/04/06 00:30:08;;;;;;;30.30;8.43;;;;;;;18.09;70.57;100680.25;2073151;28;20053;-73
2022/04/06 00:31:31;;;;;;;31.10;5.60;;;;;;;18.06;70.65;100677.63;2068298;28;20456;-74
2022/04/06 00:32:54;;;;;;;27.65;7.55;;;;;;;18.05;70.69;100676.75;2074437;28;20057;-73
2022/04/06 00:34:16;;;;;;;27.35;5.25;;;;;;;18.05;70.70;100674.06;2076842;28;20493;-74
2022/04/06 00:35:38;;;;;;;38.05;8.77;;;;;;;18.08;70.57;100684.72;2068254;28;20092;-74
2022/04/06 00:37:02;;;;;;;31.73;5.70;;;;;;;18.12;70.60;100680.19;2073433;28;20488;-74
2022/04/06 00:38:24;;;;;;;25.45;6.32;;;;;;;18.12;70.57;100685.53;2077416;28;20049;-74
2022/04/06 00:39:46;;;;;;;22.05;5.90;;;;;;;18.13;70.65;100690.88;2076203;28;20331;-74
2022/04/06 00:41:09;;;;;;;20.75;5.13;;;;;;;18.17;70.47;100697.94;2076022;28;20053;-74
2022/04/06 00:42:30;;;;;;;28.00;5.05;;;;;;;18.18;70.43;100697.00;2070965;28;20591;-74
2022/04/06 00:44:13;;;;;;;25.70;6.22;;;;;;;18.22;70.26;100700.53;2071538;28;20058;-74
2022/04/06 00:45:36;;;;;;;29.65;6.13;;;;;;;18.21;70.26;100705.00;2078043;28;20103;-74
2022/04/06 00:46:58;;;;;;;24.33;5.78;;;;;;;18.21;70.20;100707.66;2068353;28;20490;-74
2022/04/06 00:48:19;;;;;;;24.50;5.22;;;;;;;18.21;70.12;100699.63;2072074;28;20045;-74
2022/04/06 00:49:42;;;;;;;30.42;6.32;;;;;;;18.23;70.12;100699.63;2076871;28;20636;-74
2022/04/06 00:51:05;;;;;;;26.67;5.95;;;;;;;18.23;69.97;100695.16;2076249;28;20092;-74
2022/04/06 00:52:30;;;;;;;26.58;6.72;;;;;;;18.24;70.05;100696.94;2068629;28;20073;-74
2022/04/06 00:53:53;;;;;;;26.15;6.25;;;;;;;18.25;69.99;100695.13;2076729;28;20045;-73
2022/04/06 00:55:15;;;;;;;34.15;8.07;;;;;;;18.25;69.88;100693.31;2076921;28;20049;-74
2022/04/06 00:56:38;;;;;;;18.15;5.18;;;;;;;18.26;69.89;100700.44;2071617;28;20069;-73
2022/04/06 00:58:01;;;;;;;34.28;6.22;;;;;;;18.30;69.92;100703.97;2066020;28;20446;-73
2022/04/06 00:59:26;;;;;;;30.10;6.43;;;;;;;18.30;69.85;100703.97;2074771;28;20166;-74
2022/04/06 01:00:49;;;;;;;38.08;8.25;;;;;;;18.28;69.81;100703.97;2075390;28;20122;-73
2022/04/06 01:02:13;;;;;;;27.63;6.38;;;;;;;18.28;69.88;100716.47;2077631;28;20045;-74
2022/04/06 01:03:36;;;;;;;27.60;5.00;;;;;;;18.27;69.78;100715.56;2086887;28;20454;-74
2022/04/06 01:04:57;;;;;;;29.08;5.13;;;;;;;18.23;69.78;100716.53;2080368;28;20545;-74
2022/04/06 01:06:21;;;;;;;31.30;6.15;;;;;;;18.25;69.81;100706.69;2077718;28;20561;-74
2022/04/06 01:07:49;;;;;;;27.02;6.60;;;;;;;18.27;69.70;100710.22;2077790;28;20445;-74
2022/04/06 01:09:12;;;;;;;34.90;7.13;;;;;;;18.27;69.64;100712.91;2080075;28;20081;-74
2022/04/06 01:10:34;;;;;;;27.48;5.85;;;;;;;18.26;69.69;100705.78;2069170;28;20045;-74
2022/04/06 01:11:58;;;;;;;26.20;6.60;;;;;;;18.28;69.44;100708.44;2070440;28;20085;-74
2022/04/06 01:13:21;;;;;;;28.30;8.18;;;;;;;18.29;69.51;100707.53;2072402;28;20426;-74
2022/04/06 01:14:43;;;;;;;48.55;8.02;;;;;;;18.31;69.38;100709.25;2075423;28;20151;-74
2022/04/06 01:16:06;;;;;;;25.20;5.72;;;;;;;18.31;69.25;100703.91;2086487;28;20102;-74
2022/04/06 01:17:33;;;;;;;29.40;5.75;;;;;;;18.29;69.30;100696.84;2081120;28;20069;-74
2022/04/06 01:18:56;;;;;;;26.17;5.63;;;;;;;18.26;69.41;100707.56;2077014;28;20041;-74
2022/04/06 01:20:19;;;;;;;24.50;5.53;;;;;;;18.25;69.41;100714.69;2086253;28;20068;-74
2022/04/06 01:21:41;;;;;;;22.55;5.65;;;;;;;18.28;69.49;100706.66;2074639;28;20096;-74
2022/04/06 01:23:05;;;;;;;24.77;6.57;;;;;;;18.34;69.28;100694.97;2069555;28;20054;-73
2022/04/06 01:24:28;;;;;;;20.23;5.38;;;;;;;18.37;69.17;100699.38;2076402;28;20041;-73
2022/04/06 01:25:51;;;;;;;24.05;5.80;;;;;;;18.40;69.16;100683.28;2078578;28;20113;-74
2022/04/06 01:27:15;;;;;;;21.77;6.32;;;;;;;18.40;69.02;100692.19;2069729;28;20089;-73
2022/04/06 01:28:37;;;;;;;30.92;7.70;;;;;;;18.39;69.04;100694.88;2084062;28;20076;-74
2022/04/06 01:30:00;;;;;;;25.73;5.95;;;;;;;18.41;68.88;100695.75;2071813;28;20046;-73
2022/04/06 01:31:21;;;;;;;30.30;5.80;;;;;;;18.41;68.95;100693.97;2075393;28;20045;-73
2022/04/06 01:32:43;;;;;;;35.40;6.25;;;;;;;18.42;68.93;100700.19;2084485;28;20037;-74
2022/04/06 01:34:05;;;;;;;16.75;5.28;;;;;;;18.44;68.79;100693.03;2079590;28;20584;-74
2022/04/06 01:35:27;;;;;;;26.50;5.85;;;;;;;18.42;68.90;100695.72;2072824;28;20457;-74
2022/04/06 01:36:49;;;;;;;21.95;5.47;;;;;;;18.40;68.84;100699.31;2084364;28;20051;-74
2022/04/06 01:38:13;;;;;;;23.60;5.57;;;;;;;18.38;68.88;100701.16;2072846;28;20053;-74
2022/04/06 01:39:36;;;;;;;26.45;6.30;;;;;;;18.36;68.82;100703.84;2075346;28;20053;-74
2022/04/06 01:40:58;;;;;;;27.90;7.05;;;;;;;18.33;68.94;100706.56;2077795;28;20595;-74
2022/04/06 01:42:22;;;;;;;23.70;5.38;;;;;;;18.33;68.86;100698.53;2078441;28;20049;-74
2022/04/06 01:43:45;;;;;;;26.63;5.22;;;;;;;18.31;68.88;100706.56;2069457;28;20038;-74
2022/04/06 01:45:09;;;;;;;28.42;6.28;;;;;;;18.29;68.74;100713.78;2078669;28;20527;-74
2022/04/06 01:46:30;;;;;;;22.17;5.20;;;;;;;18.27;68.70;100715.56;2070535;28;20058;-74
2022/04/06 01:47:53;;;;;;;28.98;5.90;;;;;;;18.27;68.85;100712.91;2083506;28;20658;-73
2022/04/06 01:52:35;;;;;;;28.45;5.93;;;;;;;18.30;68.61;100720.00;2074754;28;20053;-74
2022/04/06 01:53:58;;;;;;;26.42;5.95;;;;;;;18.30;68.59;100715.53;2080318;28;20394;-74
2022/04/06 01:55:20;;;;;;;26.00;4.95;;;;;;;18.30;68.56;100710.19;2085839;28;20467;-74
2022/04/06 01:56:43;;;;;;;29.80;5.97;;;;;;;18.31;68.52;100711.94;2083417;28;20152;-73
2022/04/06 01:58:05;;;;;;;27.95;6.25;;;;;;;18.31;68.57;100719.94;2064092;28;20442;-73
2022/04/06 01:59:27;;;;;;;33.55;5.38;;;;;;;18.28;68.63;100714.66;2079962;28;20049;-74
2022/04/06 02:00:51;;;;;;;20.95;4.60;;;;;;;18.30;68.72;100725.34;2072457;28;20070;-73
2022/04/06 02:02:15;;;;;;;25.77;6.07;;;;;;;18.30;68.69;100722.66;2078635;28;20045;-74
2022/04/06 02:03:38;;;;;;;27.63;4.97;;;;;;;18.28;68.68;100719.13;2071017;28;20399;-73
2022/04/06 02:05:01;;;;;;;21.23;4.25;;;;;;;18.30;68.72;100723.56;2069990;28;20160;-74
2022/04/06 02:06:27;;;;;;;37.42;5.15;;;;;;;18.34;68.67;100721.69;2070112;28;20068;-74
2022/04/06 02:07:50;;;;;;;26.92;5.45;;;;;;;18.35;68.60;100723.47;2075713;28;20637;-74
2022/04/06 02:09:13;;;;;;;28.00;4.55;;;;;;;18.37;68.55;100726.13;2068370;28;20145;-73
2022/04/06 02:10:36;;;;;;;26.98;6.45;;;;;;;18.37;68.52;100719.00;2070241;28;20069;-73
2022/04/06 02:11:59;;;;;;;18.85;5.45;;;;;;;18.39;68.43;100724.28;2070010;28;20049;-74
2022/04/06 02:13:21;;;;;;;25.40;6.07;;;;;;;18.38;68.34;100722.53;2072100;28;20045;-73
2022/04/06 02:14:43;;;;;;;22.98;5.10;;;;;;;18.34;68.29;100713.69;2083252;28;20099;-73
2022/04/06 02:16:07;;;;;;;26.65;4.95;;;;;;;18.31;68.44;100719.94;2066119;28;20046;-73
2022/04/06 02:17:29;;;;;;;25.67;5.18;;;;;;;18.30;68.53;100715.53;2076195;28;20579;-73
2022/04/06 02:18:51;;;;;;;19.20;5.07;;;;;;;18.30;68.39;100718.22;2070038;28;20049;-74
2022/04/06 02:20:14;;;;;;;24.08;4.50;;;;;;;18.32;68.38;100721.72;2075456;28;20789;-73
2022/04/06 02:21:35;;;;;;;26.48;5.32;;;;;;;18.33;68.41;100725.28;2086494;28;20265;-74
2022/04/06 02:22:58;;;;;;;25.45;4.80;;;;;;;18.32;68.31;100731.53;2083695;28;20033;-73
2022/04/06 02:24:21;;;;;;;26.23;4.55;;;;;;;18.29;68.44;100732.47;2062079;28;20080;-74
2022/04/06 02:25:43;;;;;;;24.90;4.35;;;;;;;18.26;68.33;100737.84;2076865;28;20053;-73
2022/04/06 02:27:06;;;;;;;26.25;4.32;;;;;;;18.25;68.37;100749.44;2066432;28;20166;-74
2022/04/06 02:28:29;;;;;;;15.38;3.97;;;;;;;18.22;68.35;100753.97;2069517;28;20406;-74
2022/04/06 02:29:52;;;;;;;24.20;6.05;;;;;;;18.18;68.46;100750.44;2074382;28;20060;-74
2022/04/06 02:31:13;;;;;;;27.88;4.80;;;;;;;18.14;68.64;100746.06;2080762;28;20045;-74
2022/04/06 02:32:36;;;;;;;24.48;5.53;;;;;;;18.11;68.65;100751.47;2072984;28;20171;-74
2022/04/06 02:33:59;;;;;;;21.88;4.18;;;;;;;18.10;68.53;100749.72;2077933;28;20508;-73
2022/04/06 02:35:21;;;;;;;17.75;3.70;;;;;;;18.07;68.52;100746.19;2076632;28;20115;-74
2022/04/06 02:36:42;;;;;;;22.42;4.80;;;;;;;18.03;68.57;100758.72;2077970;28;20072;-74
2022/04/06 02:38:05;;;;;;;26.50;5.55;;;;;;;17.98;68.52;100757.03;2077327;28;20381;-73
2022/04/06 02:39:28;;;;;;;20.83;4.28;;;;;;;17.95;68.55;100762.41;2070090;28;20493;-73
2022/04/06 02:40:50;;;;;;;27.58;4.65;;;;;;;17.90;68.59;100752.69;2076925;28;20659;-74
2022/04/06 02:42:13;;;;;;;23.58;4.85;;;;;;;17.88;68.70;100750.94;2070518;28;20045;-74
2022/04/06 02:43:36;;;;;;;23.92;4.00;;;;;;;17.83;68.72;100750.13;2086312;28;20053;-74
2022/04/06 02:44:58;;;;;;;21.85;4.47;;;;;;;17.80;68.65;100747.47;2079550;28;20045;-74
2022/04/06 02:46:21;;;;;;;21.73;5.20;;;;;;;17.76;68.64;100751.09;2075650;28;20071;-74
2022/04/06 02:47:44;;;;;;;26.00;5.40;;;;;;;17.74;68.64;100751.13;2056244;28;20477;-74
2022/04/06 02:49:05;;;;;;;30.75;4.93;;;;;;;17.74;68.59;100750.22;2073141;28;20049;-73
2022/04/06 02:50:28;;;;;;;31.13;5.05;;;;;;;17.75;68.55;100752.00;2076401;28;20049;-74
2022/04/06 02:51:49;;;;;;;21.83;4.57;;;;;;;17.76;68.56;100757.31;2077842;28;20087;-74
2022/04/06 02:53:12;;;;;;;18.27;4.22;;;;;;;17.73;68.56;100749.34;2076972;28;20055;-73
2022/04/06 02:54:36;;;;;;;36.83;7.00;;;;;;;17.75;68.65;100755.56;2085104;28;20048;-74
2022/04/06 02:55:57;;;;;;;22.25;4.85;;;;;;;17.76;68.60;100748.44;2082017;28;20623;-74
2022/04/06 02:57:20;;;;;;;21.30;5.45;;;;;;;17.77;68.58;100751.09;2080318;28;20595;-73
2022/04/06 02:58:42;;;;;;;22.33;5.70;;;;;;;17.80;68.62;100752.81;2079156;28;20053;-73
2022/04/06 03:00:07;;;;;;;21.75;3.85;;;;;;;17.84;68.44;100746.53;2069829;28;20084;-73
2022/04/06 03:01:28;;;;;;;25.20;4.30;;;;;;;17.84;68.52;100746.53;2072456;28;20053;-73
2022/04/06 03:02:51;;;;;;;25.90;6.32;;;;;;;17.86;68.48;100752.72;2069373;28;20054;-73
2022/04/06 03:04:13;;;;;;;18.90;3.83;;;;;;;17.85;68.50;100756.31;2076038;28;20429;-74
2022/04/06 03:05:34;;;;;;;27.38;5.35;;;;;;;17.86;68.52;100758.94;2078932;28;20525;-74
2022/04/06 03:06:57;;;;;;;20.52;4.57;;;;;;;17.85;68.40;100757.19;2083295;28;20115;-74
2022/04/06 03:08:18;;;;;;;18.30;4.05;;;;;;;17.85;68.38;100764.34;2069312;28;20185;-74
2022/04/06 03:09:43;;;;;;;40.05;6.15;;;;;;;17.81;68.39;100770.59;2078613;28;20042;-73
2022/04/06 03:11:04;;;;;;;24.00;4.18;;;;;;;17.78;68.49;100768.88;2084436;28;20060;-74
2022/04/06 03:12:26;;;;;;;23.60;4.05;;;;;;;17.79;68.48;100767.06;2079231;28;20038;-73
2022/04/06 03:13:48;;;;;;;30.75;5.90;;;;;;;17.76;68.56;100777.81;2077562;28;20069;-74
2022/04/06 03:15:11;;;;;;;24.77;4.53;;;;;;;17.75;68.66;100782.25;2084674;28;20143;-73
2022/04/06 03:16:33;;;;;;;16.35;4.43;;;;;;;17.75;68.79;100784.03;2079367;28;20124;-73
2022/04/06 03:17:56;;;;;;;18.85;4.18;;;;;;;17.74;68.67;100787.63;2079006;28;20386;-73
2022/04/06 03:19:19;;;;;;;20.77;4.63;;;;;;;17.75;68.68;100784.03;2062693;28;20054;-73
2022/04/06 03:20:40;;;;;;;21.10;5.18;;;;;;;17.71;68.72;100787.66;2068189;28;20046;-73
2022/04/06 03:22:03;;;;;;;22.60;4.40;;;;;;;17.70;69.01;100788.56;2069862;28;20080;-73
2022/04/06 03:23:25;;;;;;;17.85;4.65;;;;;;;17.68;68.83;100787.69;2068886;28;20412;-73
2022/04/06 03:24:50;;;;;;;24.23;4.20;;;;;;;17.68;68.90;100795.72;2067081;28;20046;-74
2022/04/06 03:26:13;;;;;;;22.10;5.50;;;;;;;17.66;68.98;100793.06;2077216;28;20055;-73
2022/04/06 03:27:36;;;;;;;20.40;4.10;;;;;;;17.63;68.98;100798.44;2078681;28;20049;-73
2022/04/06 03:28:59;;;;;;;27.00;4.10;;;;;;;17.62;69.05;100804.69;2069698;28;20442;-73
2022/04/06 03:30:20;;;;;;;20.02;3.35;;;;;;;17.60;69.15;100797.56;2074702;28;20394;-73
2022/04/06 03:31:43;;;;;;;23.92;4.47;;;;;;;17.58;69.14;100807.38;2076937;28;20488;-73
2022/04/06 03:33:06;;;;;;;21.13;4.28;;;;;;;17.58;69.20;100804.72;2080173;28;20053;-72
2022/04/06 03:34:29;;;;;;;22.25;4.05;;;;;;;17.54;69.13;100804.75;2072066;28;20052;-74
2022/04/06 03:35:52;;;;;;;16.83;4.10;;;;;;;17.52;69.13;100805.69;2075042;28;20140;-74
2022/04/06 03:37:14;;;;;;;18.92;4.03;;;;;;;17.50;69.22;100799.47;2069391;28;20073;-74
2022/04/06 03:38:37;;;;;;;24.77;4.32;;;;;;;17.47;69.26;100802.16;2077854;28;20054;-74
2022/04/06 03:40:01;;;;;;;20.83;3.78;;;;;;;17.45;69.17;100806.66;2077820;28;20041;-74
2022/04/06 03:41:23;;;;;;;16.85;4.50;;;;;;;17.41;69.27;100804.91;2076861;28;20045;-74
2022/04/06 03:42:45;;;;;;;21.70;3.50;;;;;;;17.38;69.30;100808.50;2076121;28;20599;-73
2022/04/06 03:44:08;;;;;;;22.77;4.25;;;;;;;17.37;69.37;100811.19;2076709;28;20464;-73
2022/04/06 03:45:29;;;;;;;19.55;3.90;;;;;;;17.36;69.30;100812.09;2077441;28;20560;-73
2022/04/06 03:46:53;;;;;;;22.15;4.53;;;;;;;17.35;69.34;100813.88;2077622;28;20119;-74
2022/04/06 03:48:15;;;;;;;28.42;4.22;;;;;;;17.34;69.24;100819.22;2072550;28;20037;-73
2022/04/06 03:49:38;;;;;;;23.23;5.35;;;;;;;17.34;69.23;100821.88;2075229;28;20094;-74
2022/04/06 03:51:01;;;;;;;19.23;4.07;;;;;;;17.28;69.26;100822.84;2076536;28;20049;-73
2022/04/06 03:52:22;;;;;;;22.98;6.63;;;;;;;17.25;69.29;100825.56;2078543;28;20045;-74
2022/04/06 03:53:44;;;;;;;23.08;3.60;;;;;;;17.24;69.33;100822.91;2071743;28;20060;-74
2022/04/06 03:55:10;;;;;;;18.48;5.93;;;;;;;17.22;69.25;100832.69;2074306;28;20772;-74
2022/04/06 03:56:33;;;;;;;22.52;4.93;;;;;;;17.18;69.25;100834.53;2077331;28;20103;-74
2022/04/06 03:57:56;;;;;;;16.10;4.30;;;;;;;17.14;69.32;100830.09;2074979;28;20057;-73
2022/04/06 03:59:18;;;;;;;21.40;4.03;;;;;;;17.11;69.41;100830.16;2077709;28;20083;-73
2022/04/06 04:00:41;;;;;;;20.38;3.45;;;;;;;17.11;69.41;100832.81;2078154;28;20038;-74
2022/04/06 04:02:04;;;;;;;24.35;4.00;;;;;;;17.08;69.30;100840.84;2077827;28;20053;-73
2022/04/06 04:03:26;;;;;;;18.35;4.97;;;;;;;17.07;69.43;100841.72;2076582;28;20041;-73
2022/04/06 04:04:49;;;;;;;24.40;4.00;;;;;;;17.07;69.39;100839.94;2068733;28;20046;-74
2022/04/06 04:06:11;;;;;;;18.83;3.30;;;;;;;17.06;69.27;100840.00;2066570;28;20050;-74
2022/04/06 04:07:37;;;;;;;17.85;4.47;;;;;;;17.05;69.19;100844.44;2074241;28;20041;-73
2022/04/06 04:09:00;;;;;;;13.32;3.00;;;;;;;17.07;69.13;100844.41;2078304;28;20045;-73
2022/04/06 04:10:22;;;;;;;16.67;3.83;;;;;;;17.08;68.89;100851.50;2071041;28;20076;-74
2022/04/06 04:11:45;;;;;;;18.60;4.95;;;;;;;17.05;69.14;100843.53;2076105;28;20088;-74
2022/04/06 04:13:07;;;;;;;17.40;3.70;;;;;;;17.05;69.11;100854.22;2068304;28;20436;-74
2022/04/06 04:14:33;;;;;;;10.40;2.33;;;;;;;17.06;69.01;100856.00;2074018;28;20433;-74
2022/04/06 04:15:56;;;;;;;18.88;3.28;;;;;;;17.05;69.06;100860.44;2070635;28;20434;-74
2022/04/06 04:17:17;;;;;;;16.30;3.33;;;;;;;17.02;69.05;100857.78;2077378;28;20045;-74
2022/04/06 04:18:40;;;;;;;20.88;3.90;;;;;;;17.05;69.05;100864.88;2073741;28;20049;-74
2022/04/06 04:20:03;;;;;;;12.98;3.05;;;;;;;17.05;69.10;100867.56;2067501;28;20046;-73
2022/04/06 04:21:35;;;;;;;26.52;4.28;;;;;;;17.05;68.94;100856.88;2074119;28;20056;-73
2022/04/06 04:22:58;;;;;;;22.17;3.80;;;;;;;17.06;69.01;100862.22;2079939;28;20505;-73
2022/04/06 04:24:20;;;;;;;16.35;2.53;;;;;;;17.11;68.95;100864.81;2075311;28;20048;-73
2022/04/06 04:25:45;;;;;;;19.42;3.83;;;;;;;17.15;68.74;100866.56;2076886;28;20084;-73
2022/04/06 04:27:07;;;;;;;19.98;5.30;;;;;;;17.16;68.67;100876.34;2076531;28;20095;-73
2022/04/06 04:28:28;;;;;;;20.67;4.40;;;;;;;17.19;68.53;100883.44;2081127;28;20074;-73
2022/04/06 04:29:51;;;;;;;18.58;4.00;;;;;;;17.23;68.51;100883.38;2081846;28;20049;-73
2022/04/06 04:31:13;;;;;;;14.02;3.42;;;;;;;17.24;68.44;100882.50;2077188;28;20044;-73
2022/04/06 04:32:35;;;;;;;16.50;3.95;;;;;;;17.28;68.30;100883.31;2076320;28;20064;-73
2022/04/06 04:33:57;;;;;;;15.77;3.33;;;;;;;17.28;68.37;100884.22;2076945;28;20049;-74
2022/04/06 04:35:20;;;;;;;17.67;4.10;;;;;;;17.30;68.43;100890.44;2084777;28;20428;-74
2022/04/06 04:36:43;;;;;;;16.90;3.17;;;;;;;17.32;68.28;100891.31;2079686;28;20046;-73
2022/04/06 04:38:05;;;;;;;15.43;3.15;;;;;;;17.36;68.28;100894.81;2076776;28;20049;-73
2022/04/06 04:39:28;;;;;;;24.20;2.78;;;;;;;17.40;68.29;100897.44;2076201;28;20069;-74
2022/04/06 04:40:52;;;;;;;18.38;3.90;;;;;;;17.45;68.18;100894.72;2069374;28;20046;-73
2022/04/06 04:42:15;;;;;;;21.83;6.05;;;;;;;17.50;68.23;100903.56;2069052;28;20038;-73
2022/04/06 04:43:36;;;;;;;19.13;3.05;;;;;;;17.58;68.17;100901.72;2074866;28;20045;-73
2022/04/06 04:44:59;;;;;;;23.77;3.13;;;;;;;17.67;68.04;100908.75;2076704;28;20057;-73
2022/04/06 04:46:21;;;;;;;17.10;2.75;;;;;;;17.78;67.95;100906.88;2068952;28;20042;-74
2022/04/06 04:47:43;;;;;;;10.50;2.53;;;;;;;17.85;67.71;100900.56;2074187;28;20103;-74
2022/04/06 04:49:06;;;;;;;26.27;3.75;;;;;;;17.92;67.66;100913.78;2074257;28;20100;-73
2022/04/06 04:50:28;;;;;;;16.58;2.78;;;;;;;18.03;67.55;100907.44;2082830;28;20126;-74
2022/04/06 04:51:49;;;;;;;14.10;2.75;;;;;;;18.12;67.36;100908.19;2070366;28;20050;-74
2022/04/06 04:53:12;;;;;;;8.70;2.60;;;;;;;18.18;67.17;100907.25;2074039;28;20533;-74
2022/04/06 04:54:36;;;;;;;16.08;3.15;;;;;;;18.25;67.01;100907.13;2075605;28;20045;-74
2022/04/06 04:55:59;;;;;;;19.55;2.95;;;;;;;18.36;66.70;100909.69;2077352;28;20053;-74
2022/04/06 04:57:21;;;;;;;14.05;2.40;;;;;;;18.45;66.47;100908.63;2085073;28;20434;-74
2022/04/06 04:58:44;;;;;;;21.30;2.97;;;;;;;18.51;66.32;100922.81;2078256;28;20049;-73
2022/04/06 05:00:08;;;;;;;14.15;2.80;;;;;;;18.64;66.17;100916.41;2077297;28;20103;-74
2022/04/06 05:01:31;;;;;;;9.35;2.10;;;;;;;18.80;65.92;100921.53;2077266;28;20080;-74
2022/04/06 05:02:55;;;;;;;18.75;2.78;;;;;;;18.96;65.74;100921.28;2076201;28;20053;-74
2022/04/06 05:04:17;;;;;;;19.98;3.95;;;;;;;19.09;65.53;100917.50;2067555;28;20585;-74
2022/04/06 05:05:44;;;;;;;13.10;2.92;;;;;;;19.23;65.01;100908.34;2074459;28;20095;-74
2022/04/06 05:07:07;;;;;;;15.70;3.08;;;;;;;19.30;64.49;100916.22;2071427;28;20077;-73
2022/04/06 05:08:29;;;;;;;21.52;4.32;;;;;;;19.32;63.98;100917.06;2074992;28;20099;-74
2022/04/06 05:09:52;;;;;;;15.00;4.47;;;;;;;19.35;63.58;100922.38;2067962;28;20510;-73
2022/04/06 05:11:15;;;;;;;14.40;4.00;;;;;;;19.40;63.35;100916.94;2073814;28;20049;-74
2022/04/06 05:12:37;;;;;;;19.20;5.80;;;;;;;19.43;63.09;100912.41;2076267;28;20057;-74
2022/04/06 05:13:59;;;;;;;13.38;2.50;;;;;;;19.47;62.84;100919.53;2077216;28;20049;-73
2022/04/06 05:15:22;;;;;;;18.20;3.75;;;;;;;19.57;62.59;100922.91;2075200;28;20053;-74
2022/04/06 05:16:44;;;;;;;29.02;6.38;;;;;;;19.63;62.21;100925.44;2084609;28;20512;-74
2022/04/06 05:18:06;;;;;;;16.27;3.83;;;;;;;19.64;61.85;100913.84;2070795;28;20057;-73
2022/04/06 05:19:29;;;;;;;;;;;;;;;19.57;61.83;100922.00;2063563;28;20058;-74
2022/04/06 05:20:53;;;;;;;;;;;;;;;19.51;61.89;100923.00;2074282;28;19928;-74
2022/04/06 05:22:15;;;;;;;12.32;3.25;;;;;;;19.48;62.12;100923.97;2068160;28;19929;-74
2022/04/06 05:23:38;;;;;;;14.70;2.65;;;;;;;19.56;62.30;100922.94;2073611;28;20743;-73
2022/04/06 05:25:04;;;;;;;19.52;3.17;;;;;;;19.71;62.13;100922.63;2076444;28;20124;-73
2022/04/06 05:26:28;;;;;;;25.20;3.78;;;;;;;19.83;61.55;100919.72;2069473;28;20045;-73
2022/04/06 05:27:52;;;;;;;12.93;3.67;;;;;;;19.90;61.32;100921.34;2072160;28;20049;-73
2022/04/06 05:29:14;;;;;;;17.20;4.35;;;;;;;19.88;61.17;100921.41;2077306;28;20094;-73
2022/04/06 05:30:38;;;;;;;17.77;3.10;;;;;;;19.96;61.14;100914.97;2079833;28;20133;-74
2022/04/06 05:32:00;;;;;;;25.85;5.80;;;;;;;20.11;61.22;100917.34;2075479;28;20057;-74
2022/04/06 05:33:23;;;;;;;11.98;2.40;;;;;;;20.27;60.74;100916.13;2076901;28;20041;-74
2022/04/06 05:34:45;;;;;;;12.77;2.78;;;;;;;20.41;60.76;100914.06;2076245;28;20444;-74
2022/04/06 05:36:06;;;;;;;17.95;3.75;;;;;;;20.55;60.33;100922.66;2084681;28;20049;-74
2022/04/06 05:37:29;;;;;;;19.08;4.20;;;;;;;20.71;59.75;100920.50;2071686;28;20088;-74
2022/04/06 05:38:51;;;;;;;19.33;4.43;;;;;;;20.79;59.26;100921.22;2076288;28;20490;-74
2022/04/06 05:40:14;;;;;;;19.60;3.90;;;;;;;20.83;59.31;100924.69;2068766;28;20050;-74
2022/04/06 05:41:38;;;;;;;13.13;3.38;;;;;;;20.97;59.16;100926.13;2071625;28;20132;-74
2022/04/06 05:43:00;;;;;;;13.77;2.95;;;;;;;21.11;58.76;100924.91;2068699;28;20046;-74
2022/04/06 05:44:22;;;;;;;9.85;3.10;;;;;;;21.21;58.10;100935.41;2073761;28;20553;-74
2022/04/06 05:45:45;;;;;;;12.32;2.88;;;;;;;21.30;57.55;100934.31;2075179;28;20585;-73
2022/04/06 05:47:07;;;;;;;11.35;2.83;;;;;;;21.37;56.98;100939.47;2070217;28;20061;-74
2022/04/06 05:48:30;;;;;;;12.23;2.80;;;;;;;21.27;56.77;100940.63;2070295;28;20418;-74
2022/04/06 05:49:53;;;;;;;9.48;2.78;;;;;;;21.16;57.00;100940.03;2072357;28;20147;-73
2022/04/06 05:51:16;;;;;;;17.70;4.10;;;;;;;21.25;57.03;100938.91;2064799;28;20109;-74
2022/04/06 05:52:39;;;;;;;11.43;2.83;;;;;;;21.23;57.11;100947.00;2081156;28;20048;-73
2022/04/06 05:54:02;;;;;;;12.90;2.05;;;;;;;21.28;56.77;100949.56;2080268;28;20065;-74
2022/04/06 05:55:25;;;;;;;12.75;2.47;;;;;;;21.22;56.73;100947.03;2075781;28;20476;-73
2022/04/06 05:56:49;;;;;;;13.45;2.85;;;;;;;21.13;56.72;100944.56;2074230;28;20583;-73
2022/04/06 05:58:10;;;;;;;13.45;2.55;;;;;;;21.14;56.81;100946.31;2078044;28;20041;-74
2022/04/06 05:59:32;;;;;;;23.92;3.50;;;;;;;21.47;56.38;100941.00;2085624;28;20121;-74
2022/04/06 06:00:55;;;;;;;14.32;3.10;;;;;;;21.92;55.78;100937.13;2080176;28;20468;-74
2022/04/06 06:02:19;;;;;;;10.90;2.05;;;;;;;22.30;54.84;100941.41;2070156;28;20077;-74
2022/04/06 06:03:41;;;;;;;17.90;2.28;;;;;;;22.64;54.22;100944.84;2073970;28;20057;-74
2022/04/06 06:05:03;;;;;;;15.55;2.60;;;;;;;22.83;53.51;100946.06;2079298;28;20076;-74
2022/04/06 06:06:26;;;;;;;16.50;2.15;;;;;;;22.89;53.06;100945.84;2077859;28;20037;-74
2022/04/06 06:07:48;;;;;;;20.10;2.05;;;;;;;22.99;52.88;100939.22;2069276;28;20739;-74
2022/04/06 06:09:11;;;;;;;18.30;3.58;;;;;;;23.13;52.56;100945.97;2075828;28;20107;-74
2022/04/06 06:10:34;;;;;;;11.63;2.63;;;;;;;23.30;52.03;100946.31;2069524;28;20162;-74
2022/04/06 06:11:59;;;;;;;11.75;2.72;;;;;;;23.43;51.60;100936.88;2074895;28;20057;-74
2022/04/06 06:13:22;;;;;;;15.23;3.00;;;;;;;23.42;51.25;100935.09;2078129;28;20042;-74
2022/04/06 06:14:44;;;;;;;16.05;2.92;;;;;;;23.39;51.25;100936.09;2082479;28;20052;-74
2022/04/06 06:16:07;;;;;;;13.82;3.13;;;;;;;23.43;51.35;100931.47;2079999;28;20397;-74
2022/04/06 06:17:29;;;;;;;11.70;2.53;;;;;;;23.47;51.11;100943.03;2062020;28;20046;-74
2022/04/06 06:18:51;;;;;;;12.85;3.33;;;;;;;23.50;51.03;100938.44;2074656;28;20087;-74
2022/04/06 06:20:14;;;;;;;12.80;2.25;;;;;;;23.61;50.99;100940.75;2071247;28;20444;-74
2022/04/06 06:21:36;;;;;;;13.85;2.95;;;;;;;23.70;50.67;100943.13;2078451;28;20068;-74
2022/04/06 06:22:59;;;;;;;13.85;2.72;;;;;;;23.71;50.48;100943.06;2069943;28;20057;-74
2022/04/06 06:24:22;;;;;;;12.63;1.75;;;;;;;23.77;50.35;100940.16;2075316;28;20045;-74